createdAt,value
2018-04-21T00:01:19.064Z,4.70
2018-04-21T00:03:46.610Z,4.07
2018-04-21T00:06:14.197Z,4.40
2018-04-21T00:08:41.749Z,4.97
2018-04-21T00:11:09.296Z,3.93
2018-04-21T00:13:36.872Z,3.63
2018-04-21T00:16:04.474Z,4.10
2018-04-21T00:18:32.019Z,4.10
2018-04-21T00:20:59.566Z,4.33
2018-04-21T00:23:27.149Z,3.80
2018-04-21T00:25:54.705Z,4.30
2018-04-21T00:28:22.264Z,3.97
2018-04-21T00:30:49.852Z,4.43
2018-04-21T00:33:17.412Z,4.77
2018-04-21T00:35:44.968Z,4.43
2018-04-21T00:38:12.528Z,4.03
2018-04-21T00:40:40.880Z,4.00
2018-04-21T00:43:08.437Z,4.37
2018-04-21T00:45:35.980Z,4.97
2018-04-21T00:48:03.567Z,4.73
2018-04-21T00:50:31.110Z,4.67
2018-04-21T00:52:58.672Z,4.77
2018-04-21T00:55:26.233Z,4.43
2018-04-21T00:57:53.777Z,5.13
2018-04-21T01:00:21.345Z,4.53
2018-04-21T01:02:49.248Z,4.27
2018-04-21T01:05:17.584Z,5.00
2018-04-21T01:07:45.135Z,4.57
2018-04-21T01:10:12.708Z,4.77
2018-04-21T01:12:40.253Z,4.47
2018-04-21T01:15:07.830Z,4.43
2018-04-21T01:17:35.386Z,4.07
2018-04-21T01:20:02.974Z,5.37
2018-04-21T01:22:30.588Z,4.63
2018-04-21T01:24:58.162Z,4.60
2018-04-21T01:27:25.720Z,4.07
2018-04-21T01:29:53.296Z,4.73
2018-04-21T01:32:20.839Z,4.73
2018-04-21T01:34:48.395Z,4.43
2018-04-21T01:37:15.929Z,4.33
2018-04-21T01:39:43.476Z,4.60
2018-04-21T01:42:11.839Z,4.37
2018-04-21T01:44:39.396Z,4.97
2018-04-21T01:47:06.964Z,4.57
2018-04-21T01:49:35.283Z,5.53
2018-04-21T01:52:02.867Z,4.50
2018-04-21T01:54:30.404Z,4.47
2018-04-21T01:56:57.969Z,3.97
2018-04-21T01:59:25.512Z,4.27
2018-04-21T02:01:53.084Z,5.10
2018-04-21T02:04:20.637Z,5.13
2018-04-21T02:06:48.209Z,5.20
2018-04-21T02:09:15.756Z,4.67
2018-04-21T02:11:43.328Z,5.07
2018-04-21T02:14:10.913Z,5.30
2018-04-21T02:16:38.478Z,4.70
2018-04-21T02:19:07.000Z,5.33
2018-04-21T02:21:35.318Z,4.80
2018-04-21T02:24:02.860Z,5.27
2018-04-21T02:26:30.461Z,5.20
2018-04-21T02:28:58.002Z,5.47
2018-04-21T02:31:25.551Z,4.60
2018-04-21T02:33:53.092Z,5.17
2018-04-21T02:36:20.662Z,5.13
2018-04-21T02:38:48.212Z,5.23
2018-04-21T02:41:15.737Z,5.00
2018-04-21T02:43:43.329Z,5.77
2018-04-21T02:46:10.907Z,5.27
2018-04-21T02:48:38.467Z,5.53
2018-04-21T02:51:06.018Z,5.27
2018-04-21T02:53:33.593Z,5.53
2018-04-21T02:56:01.133Z,4.93
2018-04-21T02:58:28.692Z,5.57
2018-04-21T03:00:56.508Z,5.73
2018-04-21T03:03:24.066Z,5.57
2018-04-21T03:05:51.601Z,6.60
2018-04-21T03:08:19.168Z,5.17
2018-04-21T03:10:46.700Z,5.53
2018-04-21T03:13:14.295Z,6.60
2018-04-21T03:15:41.837Z,5.83
2018-04-21T03:18:09.388Z,6.67
2018-04-21T03:20:36.952Z,5.13
2018-04-21T03:23:04.474Z,5.30
2018-04-21T03:25:32.814Z,6.17
2018-04-21T03:28:00.360Z,6.20
2018-04-21T03:30:27.923Z,5.80
2018-04-21T03:32:55.477Z,5.83
2018-04-21T03:35:23.039Z,4.93
2018-04-21T03:37:50.607Z,6.40
2018-04-21T03:40:18.160Z,5.70
2018-04-21T03:42:45.702Z,5.97
2018-04-21T03:45:13.261Z,5.40
2018-04-21T03:47:40.794Z,6.23
2018-04-21T03:50:09.129Z,6.03
2018-04-21T03:52:36.664Z,6.03
2018-04-21T03:55:04.223Z,6.33
2018-04-21T03:57:31.768Z,6.07
2018-04-21T04:00:00.077Z,6.63
2018-04-21T04:02:27.624Z,6.63
2018-04-21T04:04:55.160Z,6.73
2018-04-21T04:07:23.501Z,6.27
2018-04-21T04:09:51.037Z,6.87
2018-04-21T04:12:18.590Z,5.90
2018-04-21T04:14:58.095Z,5.93
2018-04-21T04:17:38.235Z,6.23
2018-04-21T04:23:19.513Z,6.40
2018-04-21T04:25:47.056Z,7.50
2018-04-21T04:28:14.614Z,6.03
2018-04-21T04:30:42.170Z,6.30
2018-04-21T04:33:09.744Z,7.03
2018-04-21T04:35:37.280Z,7.53
2018-04-21T04:38:04.855Z,6.50
2018-04-21T04:40:32.404Z,6.73
2018-04-21T04:42:59.964Z,6.13
2018-04-21T04:45:27.500Z,7.03
2018-04-21T04:47:55.833Z,6.10
2018-04-21T04:50:23.471Z,7.43
2018-04-21T04:52:51.057Z,7.43
2018-04-21T04:55:18.599Z,7.50
2018-04-21T04:57:46.140Z,6.37
2018-04-21T05:00:13.713Z,7.40
2018-04-21T05:02:41.276Z,6.50
2018-04-21T05:05:08.831Z,6.90
2018-04-21T05:07:36.362Z,7.00
2018-04-21T05:10:04.693Z,6.53
2018-04-21T05:12:32.232Z,6.70
2018-04-21T05:14:59.789Z,6.23
2018-04-21T05:17:27.350Z,6.72
2018-04-21T05:19:54.907Z,6.57
2018-04-21T05:22:22.465Z,6.37
2018-04-21T05:24:50.023Z,6.80
2018-04-21T05:27:17.587Z,7.45
2018-04-21T05:29:45.173Z,6.82
2018-04-21T05:32:12.744Z,6.60
2018-04-21T05:34:40.327Z,7.25
2018-04-21T05:37:07.878Z,6.12
2018-04-21T05:39:35.420Z,6.57
2018-04-21T05:42:02.996Z,6.97
2018-04-21T05:44:30.553Z,6.65
2018-04-21T05:46:58.108Z,6.15
2018-04-21T05:49:25.654Z,7.68
2018-04-21T05:51:53.225Z,6.43
2018-04-21T05:54:20.776Z,6.80
2018-04-21T05:56:48.369Z,6.78
2018-04-21T05:59:15.908Z,5.40
2018-04-21T06:01:43.464Z,7.12
2018-04-21T06:04:11.003Z,7.20
2018-04-21T06:06:38.559Z,6.55
2018-04-21T06:09:06.121Z,6.60
2018-04-21T06:11:33.698Z,6.30
2018-04-21T06:14:02.080Z,6.47
2018-04-21T06:16:29.664Z,6.78
2018-04-21T06:18:57.241Z,6.30
2018-04-21T06:21:25.548Z,6.45
2018-04-21T06:23:53.112Z,6.45
2018-04-21T06:26:20.668Z,6.62
2018-04-21T06:28:48.289Z,6.22
2018-04-21T06:31:15.839Z,6.30
2018-04-21T06:33:43.411Z,5.90
2018-04-21T06:36:10.968Z,5.45
2018-04-21T06:38:38.520Z,6.15
2018-04-21T06:41:06.097Z,6.12
2018-04-21T06:43:34.419Z,6.03
2018-04-21T06:46:01.959Z,5.82
2018-04-21T06:48:29.546Z,6.05
2018-04-21T06:50:57.096Z,5.53
2018-04-21T06:53:24.656Z,6.07
2018-04-21T06:55:52.183Z,6.18
2018-04-21T06:58:20.509Z,6.43
2018-04-21T07:00:48.111Z,6.15
2018-04-21T07:03:16.463Z,5.57
2018-04-21T07:05:44.018Z,5.93
2018-04-21T07:08:11.549Z,6.03
2018-04-21T07:10:39.115Z,6.15
2018-04-21T07:13:06.713Z,5.97
2018-04-21T07:15:34.293Z,4.75
2018-04-21T07:18:01.853Z,5.32
2018-04-21T07:20:30.173Z,5.18
2018-04-21T07:22:57.732Z,4.93
2018-04-21T07:25:25.337Z,5.55
2018-04-21T07:27:52.880Z,5.37
2018-04-21T07:30:20.432Z,5.78
2018-04-21T07:32:47.969Z,5.05
2018-04-21T07:35:15.542Z,5.60
2018-04-21T07:37:43.063Z,5.50
2018-04-21T07:40:10.625Z,5.45
2018-04-21T07:42:38.150Z,5.80
2018-04-21T07:45:05.715Z,4.78
2018-04-21T07:47:33.251Z,5.37
2018-04-21T07:50:00.884Z,5.53
2018-04-21T07:52:28.430Z,5.72
2018-04-21T07:54:55.982Z,5.15
2018-04-21T07:57:24.306Z,5.28
2018-04-21T07:59:51.865Z,5.45
2018-04-21T08:02:19.436Z,5.43
2018-04-21T08:04:46.991Z,5.62
2018-04-21T08:07:14.540Z,5.80
2018-04-21T08:09:42.073Z,4.68
2018-04-21T08:12:09.666Z,5.60
2018-04-21T08:14:37.235Z,4.40
2018-04-21T08:17:04.795Z,4.37
2018-04-21T08:19:32.328Z,4.15
2018-04-21T08:21:59.882Z,3.12
2018-04-21T08:24:27.425Z,3.40
2018-04-21T08:26:55.758Z,2.50
2018-04-21T08:29:23.308Z,2.28
2018-04-21T08:31:50.864Z,2.85
2018-04-21T08:34:18.420Z,2.45
2018-04-21T08:36:45.999Z,2.70
2018-04-21T08:39:13.524Z,3.10
2018-04-21T08:41:41.083Z,2.47
2018-04-21T08:44:08.650Z,3.20
2018-04-21T08:46:36.219Z,2.50
2018-04-21T08:49:03.768Z,2.92
2018-04-21T08:51:31.346Z,2.83
2018-04-21T08:53:58.943Z,2.85
2018-04-21T08:56:26.493Z,2.72
2018-04-21T08:58:54.043Z,3.12
2018-04-21T09:01:21.591Z,2.87
2018-04-21T09:03:49.151Z,2.85
2018-04-21T09:06:16.697Z,2.60
2018-04-21T09:08:44.284Z,3.22
2018-04-21T09:11:11.812Z,3.58
2018-04-21T09:13:39.401Z,2.60
2018-04-21T09:16:06.945Z,2.78
2018-04-21T09:18:34.520Z,3.10
2018-04-21T09:21:02.044Z,2.62
2018-04-21T09:23:29.587Z,2.70
2018-04-21T09:25:57.908Z,2.53
2018-04-21T09:28:25.467Z,3.00
2018-04-21T09:30:53.030Z,2.60
2018-04-21T09:33:20.581Z,3.22
2018-04-21T09:35:48.806Z,3.03
2018-04-21T09:38:16.348Z,2.78
2018-04-21T09:40:43.924Z,2.50
2018-04-21T09:43:12.450Z,2.65
2018-04-21T09:45:39.999Z,2.58
2018-04-21T09:48:07.552Z,2.10
2018-04-21T09:50:35.140Z,2.50
2018-04-21T09:53:02.677Z,2.08
2018-04-21T09:55:30.236Z,2.10
2018-04-21T09:57:57.777Z,3.10
2018-04-21T10:00:31.822Z,2.55
2018-04-21T10:02:59.358Z,2.40
2018-04-21T10:05:27.694Z,2.55
2018-04-21T10:07:55.333Z,2.67
2018-04-21T10:10:22.883Z,2.47
2018-04-21T10:12:50.436Z,2.10
2018-04-21T10:15:17.977Z,2.35
2018-04-21T10:17:46.321Z,2.25
2018-04-21T10:20:13.865Z,2.15
2018-04-21T10:22:41.420Z,2.08
2018-04-21T10:25:08.948Z,2.00
2018-04-21T10:27:36.549Z,1.80
2018-04-21T10:30:04.093Z,1.35
2018-04-21T10:32:31.658Z,2.12
2018-04-21T10:34:59.197Z,1.23
2018-04-21T10:37:26.776Z,1.10
2018-04-21T10:39:54.309Z,1.12
2018-04-21T10:42:21.872Z,1.05
2018-04-21T10:44:49.411Z,1.02
2018-04-21T10:47:17.724Z,1.30
2018-04-21T10:49:45.272Z,0.95
2018-04-21T10:52:12.813Z,0.88
2018-04-21T10:54:41.147Z,0.80
2018-04-21T10:57:08.727Z,1.02
2018-04-21T10:59:36.286Z,0.90
2018-04-21T11:02:03.829Z,0.93
2018-04-21T11:04:31.390Z,0.70
2018-04-21T11:06:58.948Z,0.77
2018-04-21T11:09:26.505Z,0.98
2018-04-21T11:11:54.032Z,0.80
2018-04-21T11:14:21.628Z,0.50
2018-04-21T11:16:49.160Z,0.55
2018-04-21T11:19:16.714Z,0.90
2018-04-21T11:21:44.256Z,0.70
2018-04-21T11:24:13.045Z,0.40
2018-04-21T11:26:41.345Z,0.60
2018-04-21T11:29:08.899Z,0.65
2018-04-21T11:31:36.431Z,0.75
2018-04-21T11:34:04.766Z,1.35
2018-04-21T11:36:32.292Z,0.82
2018-04-21T11:38:59.836Z,0.60
2018-04-21T11:41:27.431Z,0.77
2018-04-21T11:43:54.968Z,0.77
2018-04-21T11:46:22.535Z,0.88
2018-04-21T11:48:50.074Z,0.70
2018-04-21T11:51:18.399Z,0.50
2018-04-21T11:53:45.958Z,0.85
2018-04-21T11:56:13.521Z,0.77
2018-04-21T11:58:41.044Z,0.85
2018-04-21T12:01:09.368Z,0.88
2018-04-21T12:03:36.915Z,0.52
2018-04-21T12:06:04.480Z,0.70
2018-04-21T12:08:32.022Z,0.68
2018-04-21T12:10:59.575Z,0.70
2018-04-21T12:13:27.115Z,0.80
2018-04-21T12:15:55.435Z,0.82
2018-04-21T12:18:22.957Z,0.73
2018-04-21T12:20:51.286Z,1.00
2018-04-21T12:23:18.834Z,0.70
2018-04-21T12:25:46.408Z,0.60
2018-04-21T12:28:13.945Z,0.82
2018-04-21T12:30:41.479Z,0.77
2018-04-21T12:33:09.037Z,0.80
2018-04-21T12:35:37.336Z,0.62
2018-04-21T12:38:04.890Z,0.80
2018-04-21T12:40:32.430Z,0.90
2018-04-21T12:43:00.764Z,0.77
2018-04-21T12:45:28.293Z,0.60
2018-04-21T12:47:55.848Z,0.47
2018-04-21T12:50:23.397Z,1.00
2018-04-21T12:52:50.963Z,0.90
2018-04-21T12:55:18.512Z,0.70
2018-04-21T12:57:46.079Z,0.77
2018-04-21T13:00:13.614Z,0.52
2018-04-21T13:02:41.173Z,0.50
2018-04-21T13:05:08.708Z,0.60
2018-04-21T13:07:36.269Z,0.73
2018-04-21T13:10:03.815Z,0.50
2018-04-21T13:12:31.392Z,0.75
2018-04-21T13:14:58.944Z,0.60
2018-04-21T13:17:26.480Z,0.60
2018-04-21T13:19:54.064Z,0.60
2018-04-21T13:22:21.612Z,0.70
2018-04-21T13:24:49.176Z,0.60
2018-04-21T13:27:16.734Z,0.60
2018-04-21T13:29:44.301Z,0.55
2018-04-21T13:32:11.904Z,0.60
2018-04-21T13:34:39.468Z,0.65
2018-04-21T13:37:07.796Z,0.80
2018-04-21T13:39:35.384Z,0.77
2018-04-21T13:42:02.914Z,0.40
2018-04-21T13:44:30.469Z,0.57
2018-04-21T13:46:58.016Z,0.75
2018-04-21T13:49:25.588Z,0.60
2018-04-21T13:51:53.143Z,0.75
2018-04-21T13:54:20.720Z,0.70
2018-04-21T13:56:48.268Z,0.60
2018-04-21T13:59:15.828Z,0.80
2018-04-21T14:01:43.374Z,0.62
2018-04-21T14:04:10.952Z,0.60
2018-04-21T14:06:38.520Z,0.47
2018-04-21T14:09:06.067Z,0.60
2018-04-21T14:11:33.631Z,0.52
2018-04-21T14:14:01.163Z,0.65
2018-04-21T14:16:28.729Z,0.55
2018-04-21T14:18:56.296Z,0.70
2018-04-21T14:21:23.882Z,0.68
2018-04-21T14:23:51.413Z,0.70
2018-04-21T14:26:19.049Z,0.60
2018-04-21T14:28:46.580Z,0.60
2018-04-21T14:31:15.117Z,0.80
2018-04-21T14:33:42.644Z,0.50
2018-04-21T14:36:10.208Z,0.90
2018-04-21T14:38:37.746Z,0.85
2018-04-21T14:41:05.326Z,0.65
2018-04-21T14:43:32.852Z,0.80
2018-04-21T14:46:00.400Z,0.88
2018-04-21T14:48:27.960Z,0.50
2018-04-21T14:50:55.498Z,0.60
2018-04-21T14:53:23.816Z,0.45
2018-04-21T14:55:51.396Z,0.57
2018-04-21T14:58:19.918Z,0.57
2018-04-21T15:00:48.221Z,1.05
2018-04-21T15:03:15.788Z,0.60
2018-04-21T15:05:43.391Z,0.75
2018-04-21T15:08:10.952Z,0.50
2018-04-21T15:10:38.488Z,0.70
2018-04-21T15:13:06.047Z,0.70
2018-04-21T15:15:33.592Z,0.80
2018-04-21T15:18:01.156Z,0.62
2018-04-21T15:20:28.700Z,0.68
2018-04-21T15:22:56.261Z,0.80
2018-04-21T15:25:23.930Z,0.68
2018-04-21T15:27:51.511Z,0.47
2018-04-21T15:30:19.045Z,0.70
2018-04-21T15:32:46.585Z,0.50
2018-04-21T15:35:14.158Z,0.80
2018-04-21T15:37:41.698Z,0.70
2018-04-21T15:40:09.269Z,0.93
2018-04-21T15:42:36.852Z,0.60
2018-04-21T15:45:04.418Z,0.70
2018-04-21T15:47:31.952Z,0.77
2018-04-21T15:49:59.513Z,0.80
2018-04-21T15:52:27.054Z,0.77
2018-04-21T15:54:55.400Z,0.73
2018-04-21T15:57:22.964Z,0.70
2018-04-21T15:59:50.524Z,0.57
2018-04-21T16:02:18.078Z,0.90
2018-04-21T16:04:45.628Z,0.60
2018-04-21T16:07:13.189Z,0.60
2018-04-21T16:09:40.747Z,0.68
2018-04-21T16:12:08.294Z,0.75
2018-04-21T16:14:35.866Z,0.52
2018-04-21T16:17:03.423Z,0.40
2018-04-21T16:19:30.974Z,0.80
2018-04-21T16:21:58.544Z,0.90
2018-04-21T16:24:26.138Z,1.08
2018-04-21T16:26:53.658Z,0.40
2018-04-21T16:29:21.264Z,1.00
2018-04-21T16:31:48.823Z,0.80
2018-04-21T16:34:16.392Z,0.55
2018-04-21T16:36:43.945Z,0.75
2018-04-21T16:39:11.482Z,0.93
2018-04-21T16:41:39.031Z,0.60
2018-04-21T16:44:06.613Z,0.60
2018-04-21T16:46:35.183Z,0.95
2018-04-21T16:49:02.723Z,1.17
2018-04-21T16:51:30.301Z,1.00
2018-04-21T16:53:57.848Z,0.80
2018-04-21T16:56:25.504Z,1.05
2018-04-21T16:58:53.092Z,1.37
2018-04-21T17:01:20.640Z,1.12
2018-04-21T17:03:48.170Z,1.20
2018-04-21T17:06:15.793Z,0.95
2018-04-21T17:08:44.113Z,1.17
2018-04-21T17:11:11.660Z,1.00
2018-04-21T17:13:39.221Z,0.95
2018-04-21T17:16:07.517Z,1.10
2018-04-21T17:18:35.098Z,1.10
2018-04-21T17:21:02.722Z,1.35
2018-04-21T17:23:30.320Z,1.40
2018-04-21T17:25:57.876Z,1.23
2018-04-21T17:28:25.441Z,1.40
2018-04-21T17:30:52.996Z,1.40
2018-04-21T17:33:20.568Z,0.93
2018-04-21T17:35:48.695Z,1.15
2018-04-21T17:38:16.305Z,1.37
2018-04-21T17:40:43.835Z,1.25
2018-04-21T17:43:11.454Z,1.40
2018-04-21T17:45:39.047Z,1.33
2018-04-21T17:48:06.633Z,0.90
2018-04-21T17:50:34.193Z,1.00
2018-04-21T17:53:01.737Z,1.00
2018-04-21T17:55:29.298Z,1.13
2018-04-21T17:57:56.837Z,1.10
2018-04-21T18:00:25.178Z,1.60
2018-04-21T18:02:52.751Z,1.10
2018-04-21T18:05:20.328Z,1.00
2018-04-21T18:07:48.628Z,1.20
2018-04-21T18:10:16.185Z,0.80
2018-04-21T18:12:43.761Z,0.77
2018-04-21T18:15:11.323Z,0.90
2018-04-21T18:17:38.863Z,1.10
2018-04-21T18:20:06.424Z,0.97
2018-04-21T18:22:33.957Z,1.10
2018-04-21T18:25:01.523Z,1.07
2018-04-21T18:27:30.715Z,1.10
2018-04-21T18:29:58.281Z,1.30
2018-04-21T18:32:25.820Z,1.00
2018-04-21T18:34:53.420Z,1.20
2018-04-21T18:37:21.732Z,1.67
2018-04-21T18:39:49.270Z,1.50
2018-04-21T18:42:16.851Z,2.00
2018-04-21T18:44:44.424Z,1.73
2018-04-21T18:47:12.030Z,1.40
2018-04-21T18:49:39.547Z,1.73
2018-04-21T18:52:07.104Z,1.50
2018-04-21T18:54:34.751Z,1.60
2018-04-21T18:57:02.352Z,1.67
2018-04-21T18:59:29.893Z,2.00
2018-04-21T19:01:57.462Z,1.70
2018-04-21T19:04:25.016Z,2.20
2018-04-21T19:06:52.654Z,2.30
2018-04-21T19:09:20.193Z,2.17
2018-04-21T19:11:47.777Z,2.50
2018-04-21T19:14:15.312Z,2.57
2018-04-21T19:16:42.914Z,3.00
2018-04-21T19:19:10.480Z,1.80
2018-04-21T19:21:38.020Z,2.10
2018-04-21T19:24:05.588Z,1.60
2018-04-21T19:26:33.122Z,1.70
2018-04-21T19:29:00.701Z,1.77
2018-04-21T19:31:28.243Z,1.80
2018-04-21T19:33:55.927Z,1.77
2018-04-21T19:36:24.143Z,1.30
2018-04-21T19:38:51.780Z,1.53
2018-04-21T19:41:19.312Z,1.63
2018-04-21T19:43:46.860Z,1.70
2018-04-21T19:46:14.455Z,1.60
2018-04-21T19:48:42.145Z,1.40
2018-04-21T19:51:09.744Z,1.30
2018-04-21T19:53:38.046Z,1.53
2018-04-21T19:56:05.592Z,2.23
2018-04-21T19:58:33.190Z,2.23
2018-04-21T20:01:00.734Z,1.50
2018-04-21T20:03:28.323Z,1.50
2018-04-21T20:05:55.854Z,1.70
2018-04-21T20:08:23.568Z,1.63
2018-04-21T20:10:51.898Z,1.60
2018-04-21T20:13:19.435Z,1.83
2018-04-21T20:15:46.997Z,2.20
2018-04-21T20:18:14.716Z,1.83
2018-04-21T20:20:42.255Z,2.33
2018-04-21T20:23:09.791Z,1.87
2018-04-21T20:25:37.663Z,1.30
2018-04-21T20:28:05.247Z,1.80
2018-04-21T20:30:32.815Z,2.03
2018-04-21T20:33:01.148Z,2.00
2018-04-21T20:35:28.720Z,2.00
2018-04-21T20:37:56.255Z,1.97
2018-04-21T20:40:23.896Z,2.20
2018-04-21T20:42:52.212Z,1.73
2018-04-21T20:45:19.804Z,1.90
2018-04-21T20:47:47.335Z,1.80
2018-04-21T20:50:15.800Z,2.20
2018-04-21T20:52:43.340Z,1.23
2018-04-21T20:55:11.663Z,1.90
2018-04-21T20:57:39.222Z,1.77
2018-04-21T21:00:06.755Z,2.23
2018-04-21T21:02:34.317Z,1.50
2018-04-21T21:05:01.854Z,1.87
2018-04-21T21:07:30.179Z,1.27
2018-04-21T21:09:57.708Z,1.70
2018-04-21T21:12:26.108Z,1.53
2018-04-21T21:14:53.601Z,2.20
2018-04-21T21:17:21.165Z,1.80
2018-04-21T21:19:48.712Z,2.10
2018-04-21T21:22:16.269Z,1.73
2018-04-21T21:24:43.810Z,1.80
2018-04-21T21:27:11.370Z,1.80
2018-04-21T21:29:38.913Z,2.30
2018-04-21T21:32:07.232Z,2.53
2018-04-21T21:34:34.757Z,2.40
2018-04-21T21:37:02.322Z,2.63
2018-04-21T21:39:30.285Z,2.73
2018-04-21T21:41:57.867Z,3.13
2018-04-21T21:44:25.488Z,3.10
2018-04-21T21:46:53.806Z,3.33
2018-04-21T21:49:21.385Z,3.40
2018-04-21T21:51:48.912Z,4.43
2018-04-21T21:54:16.529Z,3.60
2018-04-21T21:56:44.051Z,3.43
2018-04-21T21:59:11.617Z,4.60
2018-04-21T22:01:39.156Z,3.47
2018-04-21T22:04:06.724Z,2.87
2018-04-21T22:06:39.906Z,2.60
2018-04-21T22:09:07.515Z,3.53
2018-04-21T22:11:35.073Z,2.57
2018-04-21T22:14:02.658Z,2.40
2018-04-21T22:16:30.203Z,2.10
2018-04-21T22:18:57.765Z,2.20
2018-04-21T22:21:25.369Z,2.07
2018-04-21T22:23:52.997Z,1.90
2018-04-21T22:26:20.554Z,1.80
2018-04-21T22:28:48.113Z,2.00
2018-04-21T22:31:15.687Z,2.23
2018-04-21T22:33:44.004Z,3.40
2018-04-21T22:36:11.551Z,2.37
2018-04-21T22:38:39.088Z,2.63
2018-04-21T22:41:07.404Z,2.37
2018-04-21T22:43:34.944Z,2.80
2018-04-21T22:46:03.269Z,2.50
2018-04-21T22:48:31.590Z,2.50
2018-04-21T22:50:59.925Z,2.70
2018-04-21T22:53:28.242Z,2.40
2018-04-21T22:55:56.567Z,2.67
2018-04-21T22:58:24.133Z,2.83
2018-04-21T23:00:51.707Z,2.93
2018-04-21T23:03:19.248Z,2.20
2018-04-21T23:05:46.813Z,2.67
2018-04-21T23:08:14.360Z,3.07
2018-04-21T23:10:41.913Z,2.40
2018-04-21T23:13:09.448Z,2.13
2018-04-21T23:15:37.783Z,2.53
2018-04-21T23:18:05.316Z,2.83
2018-04-21T23:20:32.897Z,2.33
2018-04-21T23:23:00.438Z,1.97
2018-04-21T23:25:27.981Z,2.27
2018-04-21T23:27:55.536Z,2.27
2018-04-21T23:30:23.831Z,2.03
2018-04-21T23:32:51.387Z,1.80
2018-04-21T23:35:18.921Z,2.23
2018-04-21T23:37:47.364Z,2.33
2018-04-21T23:40:14.896Z,2.07
2018-04-21T23:42:42.452Z,1.90
2018-04-21T23:45:10.006Z,2.10
2018-04-21T23:47:37.573Z,2.17
2018-04-21T23:50:05.102Z,2.13
2018-04-21T23:52:33.424Z,2.30
2018-04-21T23:55:00.963Z,2.03
2018-04-21T23:57:28.524Z,2.03
2018-04-21T23:59:56.073Z,2.50
